createdAt,value
2019-04-16T00:01:29.213Z,9.20
2019-04-16T00:04:07.975Z,9.20
2019-04-16T00:06:53.442Z,9.20
2019-04-16T00:09:29.351Z,9.20
2019-04-16T00:11:59.639Z,9.20
2019-04-16T00:14:32.857Z,9.20
2019-04-16T00:17:01.492Z,9.10
2019-04-16T00:19:30.157Z,9.00
2019-04-16T00:22:12.482Z,8.90
2019-04-16T00:24:43.131Z,8.80
2019-04-16T00:27:11.787Z,8.80
2019-04-16T00:29:40.427Z,8.80
2019-04-16T00:32:10.771Z,8.90
2019-04-16T00:34:39.408Z,8.90
2019-04-16T00:37:08.037Z,9.00
2019-04-16T00:39:36.683Z,9.00
2019-04-16T00:42:06.912Z,9.00
2019-04-16T00:44:35.660Z,9.00
2019-04-16T00:47:10.334Z,9.00
2019-04-16T00:49:40.988Z,8.90
2019-04-16T00:52:09.577Z,8.80
2019-04-16T00:54:42.397Z,8.80
2019-04-16T00:57:10.355Z,8.70
2019-04-16T00:59:46.358Z,8.70
2019-04-16T01:02:15.592Z,8.80
2019-04-16T01:04:44.740Z,8.80
2019-04-16T01:07:13.473Z,8.70
2019-04-16T01:09:42.603Z,8.70
2019-04-16T01:12:11.413Z,8.80
2019-04-16T01:14:42.101Z,8.80
2019-04-16T01:17:12.621Z,8.80
2019-04-16T01:19:42.012Z,8.70
2019-04-16T01:22:15.814Z,8.80
2019-04-16T01:24:45.343Z,8.80
2019-04-16T01:27:14.138Z,8.90
2019-04-16T01:29:42.739Z,8.90
2019-04-16T01:32:15.985Z,8.80
2019-04-16T01:35:02.561Z,8.80
2019-04-16T01:37:49.156Z,8.70
2019-04-16T01:40:22.137Z,8.80
2019-04-16T01:42:54.403Z,8.70
2019-04-16T01:45:21.165Z,8.60
2019-04-16T01:47:49.799Z,8.70
2019-04-16T01:50:18.593Z,8.70
2019-04-16T01:52:49.464Z,8.60
2019-04-16T01:55:17.505Z,8.50
2019-04-16T01:57:46.343Z,8.50
2019-04-16T02:00:15.227Z,8.40
2019-04-16T02:02:46.362Z,8.30
2019-04-16T02:05:14.207Z,8.30
2019-04-16T02:07:42.840Z,8.30
2019-04-16T02:10:11.569Z,8.40
2019-04-16T02:12:43.676Z,8.30
2019-04-16T02:15:13.563Z,8.30
2019-04-16T02:17:42.359Z,8.20
2019-04-16T02:20:11.416Z,8.10
2019-04-16T02:22:45.074Z,8.00
2019-04-16T02:25:19.202Z,8.00
2019-04-16T02:27:46.716Z,8.00
2019-04-16T02:30:19.228Z,7.90
2019-04-16T02:32:47.626Z,7.90
2019-04-16T02:35:16.316Z,7.90
2019-04-16T02:37:44.940Z,7.90
2019-04-16T02:40:18.489Z,7.90
2019-04-16T02:42:44.023Z,7.90
2019-04-16T02:45:22.454Z,7.80
2019-04-16T02:47:48.671Z,7.90
2019-04-16T02:50:18.974Z,7.80
2019-04-16T02:52:51.024Z,7.80
2019-04-16T02:55:21.233Z,7.70
2019-04-16T02:57:59.537Z,7.70
2019-04-16T03:00:29.418Z,7.70
2019-04-16T03:03:03.868Z,7.60
2019-04-16T03:05:34.395Z,7.60
2019-04-16T03:08:04.813Z,7.50
2019-04-16T03:10:35.553Z,7.50
2019-04-16T03:13:04.226Z,7.40
2019-04-16T03:15:34.611Z,7.40
2019-04-16T03:18:03.493Z,7.50
2019-04-16T03:20:44.160Z,7.40
2019-04-16T03:23:13.006Z,7.50
2019-04-16T03:25:47.298Z,7.40
2019-04-16T03:28:15.946Z,7.50
2019-04-16T03:30:44.610Z,7.40
2019-04-16T03:33:15.139Z,7.40
2019-04-16T03:35:44.430Z,7.30
2019-04-16T03:38:13.054Z,7.30
2019-04-16T03:40:41.672Z,7.20
2019-04-16T03:43:10.315Z,7.30
2019-04-16T03:45:53.964Z,7.30
2019-04-16T03:48:24.613Z,7.30
2019-04-16T03:51:00.497Z,7.20
2019-04-16T03:53:33.568Z,7.10
2019-04-16T03:56:11.232Z,7.00
2019-04-16T03:58:39.861Z,7.00
2019-04-16T04:01:08.476Z,7.00
2019-04-16T04:03:44.342Z,6.90
2019-04-16T04:06:15.683Z,7.00
2019-04-16T04:09:18.954Z,7.00
2019-04-16T04:11:48.777Z,6.90
2019-04-16T04:14:22.148Z,6.80
2019-04-16T04:16:55.997Z,6.80
2019-04-16T04:19:24.575Z,6.80
2019-04-16T04:22:02.469Z,6.70
2019-04-16T04:24:37.743Z,6.70
2019-04-16T04:27:14.416Z,6.70
2019-04-16T04:29:48.439Z,6.70
2019-04-16T04:32:17.920Z,6.60
2019-04-16T04:34:48.752Z,6.60
2019-04-16T04:37:16.763Z,6.50
2019-04-16T04:39:45.361Z,6.50
2019-04-16T04:42:13.971Z,6.50
2019-04-16T04:44:42.537Z,6.60
2019-04-16T04:47:11.107Z,6.60
2019-04-16T04:49:39.736Z,6.60
2019-04-16T04:52:08.314Z,6.50
2019-04-16T04:54:44.127Z,6.40
2019-04-16T04:57:15.198Z,6.40
2019-04-16T04:59:43.701Z,6.50
2019-04-16T05:02:14.583Z,6.50
2019-04-16T05:04:49.637Z,6.50
2019-04-16T05:07:19.616Z,6.60
2019-04-16T05:09:48.248Z,6.80
2019-04-16T05:12:20.807Z,7.20
2019-04-16T05:14:57.480Z,7.40
2019-04-16T05:17:25.647Z,7.60
2019-04-16T05:19:54.264Z,7.90
2019-04-16T05:22:28.595Z,8.00
2019-04-16T05:25:00.877Z,8.10
2019-04-16T05:27:29.376Z,8.50
2019-04-16T05:30:03.913Z,8.90
2019-04-16T05:32:34.023Z,9.40
2019-04-16T05:35:25.030Z,9.40
2019-04-16T05:38:00.623Z,9.70
2019-04-16T05:40:35.477Z,10.20
2019-04-16T05:43:10.020Z,10.50
2019-04-16T05:45:41.315Z,10.60
2019-04-16T05:48:21.880Z,10.20
2019-04-16T05:50:50.992Z,10.20
2019-04-16T05:53:28.129Z,10.20
2019-04-16T05:55:58.418Z,10.90
2019-04-16T05:58:27.753Z,11.30
2019-04-16T06:01:01.354Z,11.30
2019-04-16T06:03:29.956Z,12.40
2019-04-16T06:05:59.204Z,12.80
2019-04-16T06:08:28.614Z,12.70
2019-04-16T06:10:57.673Z,13.30
2019-04-16T06:13:41.325Z,12.60
2019-04-16T06:16:17.885Z,12.80
2019-04-16T06:18:54.331Z,13.50
2019-04-16T06:21:36.369Z,13.50
2019-04-16T06:24:07.325Z,12.90
2019-04-16T06:26:53.995Z,13.80
2019-04-16T06:29:25.441Z,14.50
2019-04-16T06:32:11.890Z,15.00
2019-04-16T06:34:42.507Z,13.90
2019-04-16T06:37:26.563Z,13.30
2019-04-16T06:40:00.897Z,13.10
2019-04-16T06:42:32.235Z,14.20
2019-04-16T06:45:04.839Z,15.60
2019-04-16T06:47:34.306Z,14.40
2019-04-16T06:50:07.367Z,13.90
2019-04-16T06:52:56.931Z,13.50
2019-04-16T06:55:43.337Z,13.80
2019-04-16T06:58:22.653Z,14.20
2019-04-16T07:01:07.970Z,14.90
2019-04-16T07:03:44.062Z,14.40
2019-04-16T07:06:35.999Z,15.60
2019-04-16T07:09:05.583Z,15.60
2019-04-16T07:11:35.875Z,13.90
2019-04-16T07:14:05.432Z,14.70
2019-04-16T07:16:40.324Z,14.80
2019-04-16T07:19:11.216Z,15.30
2019-04-16T07:21:39.331Z,16.30
2019-04-16T07:24:08.062Z,16.20
2019-04-16T07:26:39.507Z,16.70
2019-04-16T07:29:20.633Z,16.40
2019-04-16T07:31:54.592Z,15.80
2019-04-16T07:34:41.335Z,16.30
2019-04-16T07:37:11.622Z,16.30
2019-04-16T07:39:56.860Z,16.00
2019-04-16T07:42:27.131Z,16.10
2019-04-16T07:45:13.328Z,16.70
2019-04-16T07:47:55.900Z,16.50
2019-04-16T07:50:26.156Z,15.30
2019-04-16T07:52:56.533Z,16.60
2019-04-16T07:55:38.655Z,17.20
2019-04-16T07:58:07.347Z,18.20
2019-04-16T08:00:40.307Z,18.80
2019-04-16T08:03:06.261Z,19.20
2019-04-16T08:05:41.222Z,19.50
2019-04-16T08:08:08.414Z,19.80
2019-04-16T08:10:37.138Z,18.40
2019-04-16T08:13:07.372Z,17.20
2019-04-16T08:15:36.235Z,17.70
2019-04-16T08:18:04.975Z,17.50
2019-04-16T08:20:33.642Z,16.60
2019-04-16T08:23:25.971Z,17.30
2019-04-16T08:26:02.590Z,17.90
2019-04-16T08:28:25.691Z,18.70
2019-04-16T08:30:54.374Z,19.30
2019-04-16T08:33:28.343Z,19.60
2019-04-16T08:35:55.877Z,18.50
2019-04-16T08:38:26.049Z,18.80
2019-04-16T08:40:54.863Z,19.50
2019-04-16T08:43:23.522Z,20.70
2019-04-16T08:45:52.200Z,20.60
2019-04-16T08:48:26.671Z,20.50
2019-04-16T08:50:57.912Z,20.80
2019-04-16T08:53:25.592Z,20.60
2019-04-16T08:55:54.597Z,19.70
2019-04-16T08:58:23.191Z,19.60
2019-04-16T09:00:51.888Z,19.80
2019-04-16T09:03:21.433Z,19.70
2019-04-16T09:05:50.056Z,19.30
2019-04-16T09:08:32.914Z,19.60
2019-04-16T09:11:04.894Z,20.40
2019-04-16T09:13:44.443Z,19.40
2019-04-16T09:16:14.319Z,19.60
2019-04-16T09:19:02.880Z,20.70
2019-04-16T09:21:31.471Z,20.30
2019-04-16T09:24:24.067Z,20.30
2019-04-16T09:27:06.243Z,20.50
2019-04-16T09:29:52.934Z,19.90
2019-04-16T09:32:28.247Z,20.70
2019-04-16T09:35:09.689Z,20.80
2019-04-16T09:37:54.264Z,21.70
2019-04-16T09:40:36.724Z,20.40
2019-04-16T09:43:16.621Z,18.40
2019-04-16T09:45:39.234Z,18.00
2019-04-16T09:48:08.318Z,18.60
2019-04-16T09:50:43.115Z,18.70
2019-04-16T09:53:07.207Z,19.60
2019-04-16T09:55:35.897Z,19.00
2019-04-16T09:58:07.070Z,19.50
2019-04-16T10:00:43.723Z,19.30
2019-04-16T10:03:32.183Z,19.80
2019-04-16T10:06:06.394Z,20.00
2019-04-16T10:08:35.037Z,19.50
2019-04-16T10:11:05.986Z,18.50
2019-04-16T10:13:36.075Z,17.80
2019-04-16T10:16:04.399Z,17.90
2019-04-16T10:18:35.141Z,17.90
2019-04-16T10:21:03.448Z,17.70
2019-04-16T10:23:48.681Z,17.90
2019-04-16T10:26:17.992Z,18.30
2019-04-16T10:28:48.062Z,18.00
2019-04-16T10:31:23.925Z,17.90
2019-04-16T10:33:52.716Z,17.60
2019-04-16T10:36:21.406Z,17.50
2019-04-16T10:39:04.086Z,17.80
2019-04-16T10:41:46.640Z,18.40
2019-04-16T10:44:19.376Z,18.30
2019-04-16T10:47:07.004Z,18.20
2019-04-16T10:49:37.364Z,18.30
2019-04-16T10:52:07.802Z,18.20
2019-04-16T10:54:46.376Z,18.40
2019-04-16T10:57:28.556Z,18.60
2019-04-16T11:00:04.519Z,18.40
2019-04-16T11:02:46.829Z,18.10
2019-04-16T11:05:29.283Z,18.60
2019-04-16T11:07:59.548Z,18.30
2019-04-16T11:10:28.247Z,18.00
2019-04-16T11:12:56.799Z,18.10
2019-04-16T11:15:26.852Z,18.60
2019-04-16T11:17:55.475Z,19.10
2019-04-16T11:20:24.486Z,19.00
2019-04-16T11:22:53.020Z,18.60
2019-04-16T11:25:21.633Z,18.50
2019-04-16T11:27:50.372Z,18.80
2019-04-16T11:30:23.611Z,19.40
2019-04-16T11:32:53.450Z,19.50
2019-04-16T11:35:23.168Z,19.60
2019-04-16T11:37:51.850Z,19.40
2019-04-16T11:40:20.456Z,18.90
2019-04-16T11:42:49.004Z,19.30
2019-04-16T11:45:18.382Z,19.40
2019-04-16T11:47:48.292Z,19.70
2019-04-16T11:50:17.144Z,19.40
2019-04-16T11:52:48.372Z,18.60
2019-04-16T11:55:16.973Z,19.20
2019-04-16T11:57:45.546Z,19.00
2019-04-16T12:00:28.657Z,19.00
2019-04-16T12:03:07.663Z,18.90
2019-04-16T12:05:44.018Z,19.00
2019-04-16T12:08:17.055Z,19.20
2019-04-16T12:10:59.481Z,19.50
2019-04-16T12:13:38.789Z,19.90
2019-04-16T12:16:11.849Z,19.80
2019-04-16T12:19:00.321Z,20.30
2019-04-16T12:21:48.789Z,20.70
2019-04-16T12:24:40.094Z,20.50
2019-04-16T12:27:26.668Z,20.00
2019-04-16T12:30:02.736Z,19.70
2019-04-16T12:32:33.003Z,19.40
2019-04-16T12:35:09.232Z,19.50
2019-04-16T12:37:56.684Z,19.20
2019-04-16T12:40:42.336Z,19.80
2019-04-16T12:43:16.013Z,19.90
2019-04-16T12:45:44.919Z,20.30
2019-04-16T12:48:17.970Z,20.30
2019-04-16T12:50:53.788Z,20.20
2019-04-16T12:53:26.723Z,19.90
2019-04-16T12:56:08.242Z,19.70
2019-04-16T12:58:43.598Z,19.70
2019-04-16T13:01:22.473Z,19.70
2019-04-16T13:03:55.453Z,19.80
2019-04-16T13:06:38.007Z,19.80
2019-04-16T13:09:14.388Z,19.60
2019-04-16T13:11:44.628Z,19.90
2019-04-16T13:14:20.820Z,20.30
2019-04-16T13:16:51.125Z,20.40
2019-04-16T13:19:37.911Z,20.50
2019-04-16T13:22:19.862Z,20.60
2019-04-16T13:24:50.143Z,20.40
2019-04-16T13:27:22.210Z,20.30
2019-04-16T13:30:01.311Z,20.10
2019-04-16T13:32:27.951Z,20.30
2019-04-16T13:34:58.293Z,20.00
2019-04-16T13:37:30.338Z,20.10
2019-04-16T13:40:00.490Z,20.10
2019-04-16T13:42:29.212Z,20.10
2019-04-16T13:45:26.987Z,20.10
2019-04-16T13:47:56.172Z,20.50
2019-04-16T13:50:29.082Z,20.70
2019-04-16T13:53:15.629Z,20.50
2019-04-16T13:56:02.200Z,20.70
2019-04-16T13:58:35.224Z,20.90
2019-04-16T14:01:08.898Z,20.90
2019-04-16T14:03:36.436Z,20.70
2019-04-16T14:06:11.270Z,20.40
2019-04-16T14:08:40.057Z,20.20
2019-04-16T14:11:08.699Z,20.00
2019-04-16T14:13:37.315Z,20.40
2019-04-16T14:16:11.689Z,20.20
2019-04-16T14:18:37.928Z,20.20
2019-04-16T14:21:06.703Z,20.30
2019-04-16T14:23:35.370Z,20.00
2019-04-16T14:26:04.133Z,20.20
2019-04-16T14:28:34.572Z,19.80
2019-04-16T14:31:09.398Z,19.70
2019-04-16T14:33:45.669Z,19.70
2019-04-16T14:36:14.536Z,20.00
2019-04-16T14:38:51.307Z,20.10
2019-04-16T14:41:19.884Z,19.70
2019-04-16T14:43:50.107Z,19.50
2019-04-16T14:46:19.221Z,19.80
2019-04-16T14:48:47.826Z,19.70
2019-04-16T14:51:16.425Z,19.80
2019-04-16T14:53:46.753Z,19.80
2019-04-16T14:56:17.089Z,19.90
2019-04-16T14:58:56.457Z,20.00
2019-04-16T15:01:26.729Z,19.60
2019-04-16T15:04:13.058Z,19.70
2019-04-16T15:06:52.766Z,19.40
2019-04-16T15:09:23.675Z,19.00
2019-04-16T15:12:13.321Z,18.90
2019-04-16T15:14:43.544Z,18.90
2019-04-16T15:17:16.296Z,18.80
2019-04-16T15:19:46.557Z,18.60
2019-04-16T15:22:25.876Z,18.70
2019-04-16T15:24:56.128Z,18.40
2019-04-16T15:27:32.619Z,18.60
2019-04-16T15:30:13.676Z,18.80
2019-04-16T15:32:51.309Z,18.80
2019-04-16T15:35:24.569Z,18.50
2019-04-16T15:37:57.883Z,18.50
2019-04-16T15:40:26.909Z,18.30
2019-04-16T15:43:00.085Z,18.30
2019-04-16T15:45:59.027Z,18.30
2019-04-16T15:48:52.857Z,18.20
2019-04-16T15:51:29.473Z,18.50
2019-04-16T15:54:00.018Z,18.40
2019-04-16T15:56:30.356Z,18.50
2019-04-16T15:59:00.877Z,18.50
2019-04-16T16:01:31.633Z,18.10
2019-04-16T16:04:10.661Z,18.00
2019-04-16T16:06:44.401Z,18.10
2019-04-16T16:09:23.864Z,18.20
2019-04-16T16:12:09.794Z,17.80
2019-04-16T16:14:38.754Z,17.60
2019-04-16T16:17:06.828Z,17.40
2019-04-16T16:19:35.433Z,17.40
2019-04-16T16:22:11.875Z,17.50
2019-04-16T16:24:42.350Z,17.50
2019-04-16T16:27:11.010Z,17.40
2019-04-16T16:29:42.235Z,17.10
2019-04-16T16:32:10.853Z,16.90
2019-04-16T16:34:39.556Z,16.80
2019-04-16T16:37:08.169Z,16.70
2019-04-16T16:39:36.772Z,16.60
2019-04-16T16:42:05.514Z,16.60
2019-04-16T16:44:34.096Z,16.50
2019-04-16T16:47:07.124Z,16.60
2019-04-16T16:49:46.651Z,16.50
2019-04-16T16:52:26.142Z,16.60
2019-04-16T16:54:56.376Z,16.40
2019-04-16T16:57:26.722Z,16.30
2019-04-16T17:00:11.983Z,16.30
2019-04-16T17:02:45.066Z,16.20
2019-04-16T17:05:18.045Z,16.30
2019-04-16T17:07:50.642Z,16.20
2019-04-16T17:10:19.160Z,16.10
2019-04-16T17:12:47.941Z,16.10
2019-04-16T17:15:19.447Z,16.00
2019-04-16T17:17:50.100Z,16.10
2019-04-16T17:20:19.032Z,16.00
2019-04-16T17:23:02.704Z,16.00
2019-04-16T17:25:37.566Z,15.90
2019-04-16T17:28:06.277Z,15.80
2019-04-16T17:30:44.213Z,15.80
2019-04-16T17:33:18.799Z,15.80
2019-04-16T17:35:47.456Z,15.70
2019-04-16T17:38:24.492Z,15.50
2019-04-16T17:41:00.425Z,15.50
2019-04-16T17:43:30.792Z,15.50
2019-04-16T17:46:07.025Z,15.40
2019-04-16T17:48:43.181Z,15.30
2019-04-16T17:51:30.480Z,15.20
2019-04-16T17:54:03.595Z,15.20
2019-04-16T17:56:46.204Z,15.20
2019-04-16T17:59:22.486Z,15.20
2019-04-16T18:02:04.944Z,15.10
2019-04-16T18:04:38.460Z,15.10
2019-04-16T18:07:20.549Z,15.10
2019-04-16T18:09:50.947Z,14.90
2019-04-16T18:12:27.088Z,14.90
2019-04-16T18:15:10.471Z,14.90
2019-04-16T18:17:55.364Z,14.90
2019-04-16T18:20:31.553Z,14.70
2019-04-16T18:23:27.567Z,14.70
2019-04-16T18:26:11.601Z,14.60
2019-04-16T18:28:45.450Z,14.70
2019-04-16T18:31:24.229Z,14.60
2019-04-16T18:33:55.347Z,14.50
2019-04-16T18:36:28.968Z,14.40
2019-04-16T18:39:15.509Z,14.40
2019-04-16T18:41:52.201Z,14.30
2019-04-16T18:44:54.931Z,14.30
2019-04-16T18:47:27.689Z,14.20
2019-04-16T18:50:10.184Z,14.10
2019-04-16T18:52:38.820Z,14.10
2019-04-16T18:55:08.848Z,14.10
2019-04-16T18:57:43.778Z,14.10
2019-04-16T19:00:35.830Z,14.10
2019-04-16T19:03:07.300Z,14.00
2019-04-16T19:05:48.562Z,13.90
2019-04-16T19:08:24.433Z,13.90
2019-04-16T19:10:55.220Z,13.80
2019-04-16T19:13:30.296Z,13.70
2019-04-16T19:16:01.437Z,13.70
2019-04-16T19:18:49.114Z,13.70
2019-04-16T19:21:19.011Z,13.70
2019-04-16T19:24:00.550Z,13.60
2019-04-16T19:26:36.289Z,13.60
2019-04-16T19:29:05.999Z,13.60
2019-04-16T19:31:40.664Z,13.50
2019-04-16T19:34:21.543Z,13.40
2019-04-16T19:36:55.749Z,13.40
2019-04-16T19:39:23.159Z,13.40
2019-04-16T19:41:57.226Z,13.30
2019-04-16T19:44:24.401Z,13.30
2019-04-16T19:47:15.970Z,13.20
2019-04-16T19:49:50.371Z,13.20
2019-04-16T19:52:22.513Z,13.20
2019-04-16T19:54:51.342Z,13.10
2019-04-16T19:57:31.994Z,13.00
2019-04-16T20:00:00.579Z,13.00
2019-04-16T20:02:35.106Z,13.00
2019-04-16T20:05:03.952Z,13.00
2019-04-16T20:07:33.569Z,13.00
2019-04-16T20:10:02.703Z,13.00
2019-04-16T20:12:31.293Z,13.00
2019-04-16T20:14:59.932Z,12.90
2019-04-16T20:17:36.569Z,13.00
2019-04-16T20:20:06.763Z,13.00
2019-04-16T20:22:35.453Z,13.10
2019-04-16T20:25:07.679Z,13.00
2019-04-16T20:27:42.719Z,13.00
2019-04-16T20:30:13.094Z,13.00
2019-04-16T20:32:43.857Z,13.20
2019-04-16T20:35:17.742Z,13.30
2019-04-16T20:37:50.400Z,13.30
2019-04-16T20:40:19.439Z,13.30
2019-04-16T20:42:48.274Z,13.20
2019-04-16T20:45:17.027Z,13.20
2019-04-16T20:47:54.974Z,13.20
2019-04-16T20:50:23.581Z,13.20
2019-04-16T20:52:53.465Z,13.20
2019-04-16T20:55:27.988Z,13.20
2019-04-16T20:57:58.673Z,13.10
2019-04-16T21:00:36.552Z,13.10
2019-04-16T21:03:21.100Z,13.10
2019-04-16T21:05:36.686Z,13.10
2019-04-16T21:08:05.299Z,13.20
2019-04-16T21:10:35.772Z,13.10
2019-04-16T21:13:07.241Z,13.10
2019-04-16T21:15:35.035Z,13.10
2019-04-16T21:18:03.835Z,13.20
2019-04-16T21:20:32.511Z,13.20
2019-04-16T21:23:03.478Z,13.20
2019-04-16T21:25:32.283Z,13.10
2019-04-16T21:28:15.293Z,13.10
2019-04-16T21:30:44.967Z,13.00
2019-04-16T21:33:20.530Z,13.10
2019-04-16T21:35:52.244Z,13.10
2019-04-16T21:38:38.690Z,13.10
2019-04-16T21:41:07.325Z,13.00
2019-04-16T21:43:39.706Z,12.90
2019-04-16T21:46:06.358Z,12.90
2019-04-16T21:48:35.059Z,12.90
2019-04-16T21:51:03.717Z,12.90
2019-04-16T21:53:32.344Z,13.00
2019-04-16T21:56:06.429Z,13.00
2019-04-16T21:58:31.452Z,13.00
2019-04-16T22:01:05.226Z,12.90
2019-04-16T22:03:35.602Z,12.90
2019-04-16T22:06:04.308Z,12.90
2019-04-16T22:08:33.032Z,12.80
2019-04-16T22:11:01.827Z,12.80
2019-04-16T22:13:30.548Z,12.90
2019-04-16T22:15:59.248Z,12.80
2019-04-16T22:18:33.616Z,12.90
2019-04-16T22:21:02.340Z,12.80
2019-04-16T22:23:31.027Z,12.90
2019-04-16T22:26:02.051Z,12.80
2019-04-16T22:28:29.935Z,12.80
2019-04-16T22:30:58.568Z,12.80
2019-04-16T22:33:27.193Z,12.80
2019-04-16T22:35:55.804Z,12.90
2019-04-16T22:38:25.647Z,12.70
2019-04-16T22:40:58.942Z,12.70
2019-04-16T22:43:45.283Z,12.70
2019-04-16T22:46:24.144Z,12.70
2019-04-16T22:48:56.798Z,12.60
2019-04-16T22:51:25.945Z,12.50
2019-04-16T22:53:54.672Z,12.40
2019-04-16T22:56:28.178Z,12.40
2019-04-16T22:58:55.271Z,12.40
2019-04-16T23:01:28.271Z,12.40
2019-04-16T23:03:58.964Z,12.50
2019-04-16T23:06:27.592Z,12.50
2019-04-16T23:09:01.995Z,12.40
2019-04-16T23:11:30.670Z,12.40
2019-04-16T23:14:02.505Z,12.30
2019-04-16T23:16:41.929Z,12.40
2019-04-16T23:19:09.614Z,12.60
2019-04-16T23:21:42.573Z,12.60
2019-04-16T23:24:12.681Z,12.60
2019-04-16T23:26:41.268Z,12.50
2019-04-16T23:29:12.224Z,12.40
2019-04-16T23:31:40.260Z,12.40
2019-04-16T23:34:08.871Z,12.30
2019-04-16T23:36:37.451Z,12.30
2019-04-16T23:39:07.926Z,12.20
2019-04-16T23:41:36.494Z,12.20
2019-04-16T23:44:25.930Z,12.10
2019-04-16T23:47:09.543Z,12.00
2019-04-16T23:49:42.635Z,11.90
2019-04-16T23:52:22.416Z,11.80
2019-04-16T23:55:09.830Z,11.90
2019-04-16T23:57:57.498Z,12.10
